sensor_id;sensor_type;location;lat;lon;timestamp;P1;durP1;ratioP1;P2;durP2;ratioP2
17214;SDS011;8723;51.502;6.918;2023-03-01T00:01:36;9.73;;;8.90;;
17214;SDS011;8723;51.502;6.918;2023-03-01T00:04:03;9.38;;;8.57;;
17214;SDS011;8723;51.502;6.918;2023-03-01T00:06:30;9.27;;;8.47;;
17214;SDS011;8723;51.502;6.918;2023-03-01T00:08:59;9.40;;;8.52;;
17214;SDS011;8723;51.502;6.918;2023-03-01T00:11:27;9.27;;;8.48;;
17214;SDS011;8723;51.502;6.918;2023-03-01T00:13:55;9.30;;;8.50;;
17214;SDS011;8723;51.502;6.918;2023-03-01T00:16:24;10.23;;;9.25;;
17214;SDS011;8723;51.502;6.918;2023-03-01T00:18:51;9.98;;;9.07;;
17214;SDS011;8723;51.502;6.918;2023-03-01T00:21:19;10.83;;;9.83;;
17214;SDS011;8723;51.502;6.918;2023-03-01T00:23:47;10.10;;;9.20;;
17214;SDS011;8723;51.502;6.918;2023-03-01T00:26:16;10.50;;;9.60;;
17214;SDS011;8723;51.502;6.918;2023-03-01T00:28:43;11.40;;;10.25;;
17214;SDS011;8723;51.502;6.918;2023-03-01T00:31:11;10.68;;;9.68;;
17214;SDS011;8723;51.502;6.918;2023-03-01T00:33:39;11.13;;;10.02;;
17214;SDS011;8723;51.502;6.918;2023-03-01T00:36:06;11.70;;;10.60;;
17214;SDS011;8723;51.502;6.918;2023-03-01T00:38:34;11.60;;;10.50;;
17214;SDS011;8723;51.502;6.918;2023-03-01T00:41:05;11.37;;;10.27;;
17214;SDS011;8723;51.502;6.918;2023-03-01T00:43:33;12.35;;;11.05;;
17214;SDS011;8723;51.502;6.918;2023-03-01T00:46:02;11.95;;;10.70;;
17214;SDS011;8723;51.502;6.918;2023-03-01T00:48:30;10.93;;;9.82;;
17214;SDS011;8723;51.502;6.918;2023-03-01T00:51:03;11.18;;;10.18;;
17214;SDS011;8723;51.502;6.918;2023-03-01T00:53:30;11.20;;;10.20;;
17214;SDS011;8723;51.502;6.918;2023-03-01T00:55:57;11.05;;;10.00;;
17214;SDS011;8723;51.502;6.918;2023-03-01T00:58:24;11.70;;;10.60;;
17214;SDS011;8723;51.502;6.918;2023-03-01T01:00:53;11.68;;;10.10;;
17214;SDS011;8723;51.502;6.918;2023-03-01T01:03:20;11.60;;;10.50;;
17214;SDS011;8723;51.502;6.918;2023-03-01T01:05:49;11.93;;;10.63;;
17214;SDS011;8723;51.502;6.918;2023-03-01T01:08:16;11.25;;;10.20;;
17214;SDS011;8723;51.502;6.918;2023-03-01T01:10:44;11.55;;;10.45;;
17214;SDS011;8723;51.502;6.918;2023-03-01T01:13:11;11.80;;;10.60;;
17214;SDS011;8723;51.502;6.918;2023-03-01T01:15:39;11.02;;;10.02;;
17214;SDS011;8723;51.502;6.918;2023-03-01T01:18:07;10.32;;;9.43;;
17214;SDS011;8723;51.502;6.918;2023-03-01T01:20:35;11.18;;;10.18;;
17214;SDS011;8723;51.502;6.918;2023-03-01T01:23:04;11.75;;;10.43;;
17214;SDS011;8723;51.502;6.918;2023-03-01T01:25:33;11.48;;;10.48;;
17214;SDS011;8723;51.502;6.918;2023-03-01T01:28:01;11.38;;;10.27;;
17214;SDS011;8723;51.502;6.918;2023-03-01T01:30:28;11.25;;;10.25;;
17214;SDS011;8723;51.502;6.918;2023-03-01T01:32:55;11.35;;;10.35;;
17214;SDS011;8723;51.502;6.918;2023-03-01T01:35:23;11.80;;;10.65;;
17214;SDS011;8723;51.502;6.918;2023-03-01T01:37:50;11.85;;;10.75;;
17214;SDS011;8723;51.502;6.918;2023-03-01T01:40:17;11.57;;;10.55;;
17214;SDS011;8723;51.502;6.918;2023-03-01T01:42:45;11.35;;;10.30;;
17214;SDS011;8723;51.502;6.918;2023-03-01T01:45:24;11.15;;;10.15;;
17214;SDS011;8723;51.502;6.918;2023-03-01T01:47:51;10.88;;;9.98;;
17214;SDS011;8723;51.502;6.918;2023-03-01T01:50:19;11.88;;;10.77;;
17214;SDS011;8723;51.502;6.918;2023-03-01T01:52:48;11.70;;;10.60;;
17214;SDS011;8723;51.502;6.918;2023-03-01T01:55:16;12.02;;;10.93;;
17214;SDS011;8723;51.502;6.918;2023-03-01T01:57:46;12.05;;;10.90;;
17214;SDS011;8723;51.502;6.918;2023-03-01T02:00:21;11.88;;;10.75;;
17214;SDS011;8723;51.502;6.918;2023-03-01T02:02:48;12.10;;;10.97;;
17214;SDS011;8723;51.502;6.918;2023-03-01T02:05:17;11.95;;;10.75;;
17214;SDS011;8723;51.502;6.918;2023-03-01T02:07:50;11.43;;;10.38;;
17214;SDS011;8723;51.502;6.918;2023-03-01T02:10:18;11.80;;;10.67;;
17214;SDS011;8723;51.502;6.918;2023-03-01T02:12:45;12.00;;;10.90;;
17214;SDS011;8723;51.502;6.918;2023-03-01T02:15:12;12.07;;;11.02;;
17214;SDS011;8723;51.502;6.918;2023-03-01T02:17:39;11.88;;;10.77;;
17214;SDS011;8723;51.502;6.918;2023-03-01T02:20:10;12.00;;;10.98;;
17214;SDS011;8723;51.502;6.918;2023-03-01T02:22:41;12.65;;;11.55;;
17214;SDS011;8723;51.502;6.918;2023-03-01T02:27:45;11.95;;;10.95;;
17214;SDS011;8723;51.502;6.918;2023-03-01T02:30:15;11.57;;;10.48;;
17214;SDS011;8723;51.502;6.918;2023-03-01T02:32:42;12.23;;;11.15;;
17214;SDS011;8723;51.502;6.918;2023-03-01T02:35:09;12.13;;;11.10;;
17214;SDS011;8723;51.502;6.918;2023-03-01T02:37:37;11.63;;;10.63;;
17214;SDS011;8723;51.502;6.918;2023-03-01T02:40:05;12.60;;;11.38;;
17214;SDS011;8723;51.502;6.918;2023-03-01T02:42:37;12.68;;;11.57;;
17214;SDS011;8723;51.502;6.918;2023-03-01T02:45:07;11.82;;;10.73;;
17214;SDS011;8723;51.502;6.918;2023-03-01T02:47:37;12.00;;;10.80;;
17214;SDS011;8723;51.502;6.918;2023-03-01T02:50:09;12.02;;;10.75;;
17214;SDS011;8723;51.502;6.918;2023-03-01T02:52:40;12.55;;;11.35;;
17214;SDS011;8723;51.502;6.918;2023-03-01T02:55:10;11.77;;;10.77;;
17214;SDS011;8723;51.502;6.918;2023-03-01T02:57:39;12.23;;;11.02;;
17214;SDS011;8723;51.502;6.918;2023-03-01T03:00:08;12.60;;;11.30;;
17214;SDS011;8723;51.502;6.918;2023-03-01T03:02:45;13.23;;;11.85;;
17214;SDS011;8723;51.502;6.918;2023-03-01T03:05:14;12.10;;;11.00;;
17214;SDS011;8723;51.502;6.918;2023-03-01T03:07:42;12.30;;;11.30;;
17214;SDS011;8723;51.502;6.918;2023-03-01T03:10:11;12.25;;;11.15;;
17214;SDS011;8723;51.502;6.918;2023-03-01T03:12:39;12.27;;;11.20;;
17214;SDS011;8723;51.502;6.918;2023-03-01T03:15:07;12.27;;;11.10;;
17214;SDS011;8723;51.502;6.918;2023-03-01T03:17:38;12.52;;;11.43;;
17214;SDS011;8723;51.502;6.918;2023-03-01T03:20:07;11.55;;;10.55;;
17214;SDS011;8723;51.502;6.918;2023-03-01T03:22:36;11.52;;;10.52;;
17214;SDS011;8723;51.502;6.918;2023-03-01T03:25:04;12.68;;;11.48;;
17214;SDS011;8723;51.502;6.918;2023-03-01T03:27:35;12.18;;;11.18;;
17214;SDS011;8723;51.502;6.918;2023-03-01T03:30:03;12.40;;;11.30;;
17214;SDS011;8723;51.502;6.918;2023-03-01T03:32:33;12.60;;;11.45;;
17214;SDS011;8723;51.502;6.918;2023-03-01T03:35:01;12.23;;;11.10;;
17214;SDS011;8723;51.502;6.918;2023-03-01T03:37:35;13.32;;;12.02;;
17214;SDS011;8723;51.502;6.918;2023-03-01T03:40:19;12.35;;;11.35;;
17214;SDS011;8723;51.502;6.918;2023-03-01T03:42:47;13.18;;;12.07;;
17214;SDS011;8723;51.502;6.918;2023-03-01T03:45:14;13.25;;;12.05;;
17214;SDS011;8723;51.502;6.918;2023-03-01T03:47:41;13.48;;;12.23;;
17214;SDS011;8723;51.502;6.918;2023-03-01T03:50:09;13.88;;;12.57;;
17214;SDS011;8723;51.502;6.918;2023-03-01T03:52:37;13.48;;;12.30;;
17214;SDS011;8723;51.502;6.918;2023-03-01T03:55:05;13.27;;;12.07;;
17214;SDS011;8723;51.502;6.918;2023-03-01T03:57:35;13.02;;;11.82;;
17214;SDS011;8723;51.502;6.918;2023-03-01T04:00:03;13.95;;;12.68;;
17214;SDS011;8723;51.502;6.918;2023-03-01T04:02:31;13.98;;;12.68;;
17214;SDS011;8723;51.502;6.918;2023-03-01T04:04:58;13.82;;;12.52;;
17214;SDS011;8723;51.502;6.918;2023-03-01T04:07:25;14.00;;;12.80;;
17214;SDS011;8723;51.502;6.918;2023-03-01T04:09:53;13.35;;;12.25;;
17214;SDS011;8723;51.502;6.918;2023-03-01T04:12:20;14.00;;;12.75;;
17214;SDS011;8723;51.502;6.918;2023-03-01T04:14:48;14.02;;;12.73;;
17214;SDS011;8723;51.502;6.918;2023-03-01T04:17:15;13.82;;;12.60;;
17214;SDS011;8723;51.502;6.918;2023-03-01T04:19:44;14.45;;;13.15;;
17214;SDS011;8723;51.502;6.918;2023-03-01T04:22:13;14.57;;;13.27;;
17214;SDS011;8723;51.502;6.918;2023-03-01T04:24:43;14.10;;;12.90;;
17214;SDS011;8723;51.502;6.918;2023-03-01T04:27:11;14.70;;;13.35;;
17214;SDS011;8723;51.502;6.918;2023-03-01T04:29:38;14.25;;;12.95;;
17214;SDS011;8723;51.502;6.918;2023-03-01T04:32:05;14.73;;;13.43;;
17214;SDS011;8723;51.502;6.918;2023-03-01T04:34:33;14.27;;;12.90;;
17214;SDS011;8723;51.502;6.918;2023-03-01T04:37:00;14.73;;;13.35;;
17214;SDS011;8723;51.502;6.918;2023-03-01T04:39:27;14.95;;;13.55;;
17214;SDS011;8723;51.502;6.918;2023-03-01T04:41:55;14.43;;;13.23;;
17214;SDS011;8723;51.502;6.918;2023-03-01T04:44:23;14.25;;;13.02;;
17214;SDS011;8723;51.502;6.918;2023-03-01T04:46:50;14.95;;;13.68;;
17214;SDS011;8723;51.502;6.918;2023-03-01T04:49:17;14.43;;;13.18;;
17214;SDS011;8723;51.502;6.918;2023-03-01T04:51:44;14.63;;;13.33;;
17214;SDS011;8723;51.502;6.918;2023-03-01T04:54:11;14.45;;;13.20;;
17214;SDS011;8723;51.502;6.918;2023-03-01T04:56:38;14.40;;;13.10;;
17214;SDS011;8723;51.502;6.918;2023-03-01T04:59:06;13.70;;;12.50;;
17214;SDS011;8723;51.502;6.918;2023-03-01T05:01:36;14.43;;;13.23;;
17214;SDS011;8723;51.502;6.918;2023-03-01T05:04:03;13.75;;;12.57;;
17214;SDS011;8723;51.502;6.918;2023-03-01T05:06:30;14.40;;;13.10;;
17214;SDS011;8723;51.502;6.918;2023-03-01T05:08:58;14.30;;;12.98;;
17214;SDS011;8723;51.502;6.918;2023-03-01T05:11:25;14.82;;;13.38;;
17214;SDS011;8723;51.502;6.918;2023-03-01T05:13:56;14.25;;;12.95;;
17214;SDS011;8723;51.502;6.918;2023-03-01T05:16:24;14.25;;;12.95;;
17214;SDS011;8723;51.502;6.918;2023-03-01T05:18:52;14.23;;;13.02;;
17214;SDS011;8723;51.502;6.918;2023-03-01T05:21:20;13.80;;;12.50;;
17214;SDS011;8723;51.502;6.918;2023-03-01T05:23:48;14.07;;;12.77;;
17214;SDS011;8723;51.502;6.918;2023-03-01T05:26:15;13.77;;;12.57;;
17214;SDS011;8723;51.502;6.918;2023-03-01T05:28:43;14.82;;;13.52;;
17214;SDS011;8723;51.502;6.918;2023-03-01T05:31:10;14.45;;;13.05;;
17214;SDS011;8723;51.502;6.918;2023-03-01T05:33:38;15.60;;;13.57;;
17214;SDS011;8723;51.502;6.918;2023-03-01T05:36:07;15.05;;;13.60;;
17214;SDS011;8723;51.502;6.918;2023-03-01T05:38:35;15.00;;;13.70;;
17214;SDS011;8723;51.502;6.918;2023-03-01T05:41:02;15.38;;;13.90;;
17214;SDS011;8723;51.502;6.918;2023-03-01T05:43:30;15.07;;;13.57;;
17214;SDS011;8723;51.502;6.918;2023-03-01T05:45:59;14.88;;;13.50;;
17214;SDS011;8723;51.502;6.918;2023-03-01T05:48:26;14.85;;;13.45;;
17214;SDS011;8723;51.502;6.918;2023-03-01T05:50:53;15.60;;;14.23;;
17214;SDS011;8723;51.502;6.918;2023-03-01T05:53:21;14.75;;;13.35;;
17214;SDS011;8723;51.502;6.918;2023-03-01T05:55:49;14.75;;;13.30;;
17214;SDS011;8723;51.502;6.918;2023-03-01T05:58:17;14.90;;;13.45;;
17214;SDS011;8723;51.502;6.918;2023-03-01T06:00:45;14.70;;;13.38;;
17214;SDS011;8723;51.502;6.918;2023-03-01T06:03:13;15.32;;;13.93;;
17214;SDS011;8723;51.502;6.918;2023-03-01T06:05:40;15.68;;;14.25;;
17214;SDS011;8723;51.502;6.918;2023-03-01T06:08:08;15.10;;;13.73;;
17214;SDS011;8723;51.502;6.918;2023-03-01T06:10:37;15.38;;;13.98;;
17214;SDS011;8723;51.502;6.918;2023-03-01T06:13:05;16.08;;;14.68;;
17214;SDS011;8723;51.502;6.918;2023-03-01T06:15:32;15.93;;;14.45;;
17214;SDS011;8723;51.502;6.918;2023-03-01T06:17:59;17.05;;;15.35;;
17214;SDS011;8723;51.502;6.918;2023-03-01T06:20:27;16.53;;;14.93;;
17214;SDS011;8723;51.502;6.918;2023-03-01T06:22:55;16.65;;;15.05;;
17214;SDS011;8723;51.502;6.918;2023-03-01T06:25:23;16.85;;;15.18;;
17214;SDS011;8723;51.502;6.918;2023-03-01T06:27:51;16.90;;;15.32;;
17214;SDS011;8723;51.502;6.918;2023-03-01T06:30:19;18.47;;;16.13;;
17214;SDS011;8723;51.502;6.918;2023-03-01T06:32:47;17.80;;;15.90;;
17214;SDS011;8723;51.502;6.918;2023-03-01T06:35:15;18.08;;;16.27;;
17214;SDS011;8723;51.502;6.918;2023-03-01T06:37:43;17.93;;;16.10;;
17214;SDS011;8723;51.502;6.918;2023-03-01T06:40:11;16.93;;;15.37;;
17214;SDS011;8723;51.502;6.918;2023-03-01T06:42:39;17.70;;;15.85;;
17214;SDS011;8723;51.502;6.918;2023-03-01T06:45:08;18.67;;;16.73;;
17214;SDS011;8723;51.502;6.918;2023-03-01T06:47:36;19.02;;;17.23;;
17214;SDS011;8723;51.502;6.918;2023-03-01T06:50:03;17.67;;;16.00;;
17214;SDS011;8723;51.502;6.918;2023-03-01T06:52:30;18.85;;;16.88;;
17214;SDS011;8723;51.502;6.918;2023-03-01T06:54:58;18.90;;;17.13;;
17214;SDS011;8723;51.502;6.918;2023-03-01T06:57:25;18.07;;;16.37;;
17214;SDS011;8723;51.502;6.918;2023-03-01T06:59:52;19.25;;;17.38;;
17214;SDS011;8723;51.502;6.918;2023-03-01T07:02:21;18.90;;;17.00;;
17214;SDS011;8723;51.502;6.918;2023-03-01T07:04:48;18.95;;;17.15;;
17214;SDS011;8723;51.502;6.918;2023-03-01T07:07:16;19.73;;;17.63;;
17214;SDS011;8723;51.502;6.918;2023-03-01T07:09:43;18.88;;;16.85;;
17214;SDS011;8723;51.502;6.918;2023-03-01T07:12:10;19.45;;;17.42;;
17214;SDS011;8723;51.502;6.918;2023-03-01T07:14:38;19.10;;;17.20;;
17214;SDS011;8723;51.502;6.918;2023-03-01T07:17:05;20.15;;;18.08;;
17214;SDS011;8723;51.502;6.918;2023-03-01T07:19:33;19.48;;;17.50;;
17214;SDS011;8723;51.502;6.918;2023-03-01T07:22:00;18.70;;;16.83;;
17214;SDS011;8723;51.502;6.918;2023-03-01T07:24:29;19.98;;;17.98;;
17214;SDS011;8723;51.502;6.918;2023-03-01T07:26:56;20.97;;;18.77;;
17214;SDS011;8723;51.502;6.918;2023-03-01T07:29:23;22.27;;;18.67;;
17214;SDS011;8723;51.502;6.918;2023-03-01T07:31:50;18.15;;;16.35;;
17214;SDS011;8723;51.502;6.918;2023-03-01T07:34:17;18.38;;;16.48;;
17214;SDS011;8723;51.502;6.918;2023-03-01T07:36:46;17.67;;;15.90;;
17214;SDS011;8723;51.502;6.918;2023-03-01T07:39:13;17.65;;;16.05;;
17214;SDS011;8723;51.502;6.918;2023-03-01T07:41:40;15.87;;;14.43;;
17214;SDS011;8723;51.502;6.918;2023-03-01T07:44:07;17.25;;;15.60;;
17214;SDS011;8723;51.502;6.918;2023-03-01T07:46:34;17.20;;;15.60;;
17214;SDS011;8723;51.502;6.918;2023-03-01T07:49:01;17.15;;;15.45;;
17214;SDS011;8723;51.502;6.918;2023-03-01T07:51:29;16.65;;;14.88;;
17214;SDS011;8723;51.502;6.918;2023-03-01T07:53:58;16.87;;;15.07;;
17214;SDS011;8723;51.502;6.918;2023-03-01T07:56:25;15.50;;;13.90;;
17214;SDS011;8723;51.502;6.918;2023-03-01T07:58:52;16.35;;;14.75;;
17214;SDS011;8723;51.502;6.918;2023-03-01T08:01:20;16.35;;;14.57;;
17214;SDS011;8723;51.502;6.918;2023-03-01T08:03:47;14.15;;;12.85;;
17214;SDS011;8723;51.502;6.918;2023-03-01T08:06:15;14.75;;;13.35;;
17214;SDS011;8723;51.502;6.918;2023-03-01T08:08:42;15.87;;;14.27;;
17214;SDS011;8723;51.502;6.918;2023-03-01T08:11:11;14.25;;;12.90;;
17214;SDS011;8723;51.502;6.918;2023-03-01T08:13:39;14.93;;;13.45;;
17214;SDS011;8723;51.502;6.918;2023-03-01T08:16:07;16.20;;;13.82;;
17214;SDS011;8723;51.502;6.918;2023-03-01T08:18:34;16.60;;;14.95;;
17214;SDS011;8723;51.502;6.918;2023-03-01T08:21:02;15.63;;;14.02;;
17214;SDS011;8723;51.502;6.918;2023-03-01T08:23:29;14.70;;;13.35;;
17214;SDS011;8723;51.502;6.918;2023-03-01T08:26:02;13.80;;;12.50;;
17214;SDS011;8723;51.502;6.918;2023-03-01T08:28:31;13.45;;;12.07;;
17214;SDS011;8723;51.502;6.918;2023-03-01T08:30:58;14.00;;;12.67;;
17214;SDS011;8723;51.502;6.918;2023-03-01T08:33:25;14.57;;;13.13;;
17214;SDS011;8723;51.502;6.918;2023-03-01T08:35:52;13.98;;;12.50;;
17214;SDS011;8723;51.502;6.918;2023-03-01T08:38:19;12.98;;;11.80;;
17214;SDS011;8723;51.502;6.918;2023-03-01T08:40:46;13.73;;;12.43;;
17214;SDS011;8723;51.502;6.918;2023-03-01T08:43:13;13.90;;;12.50;;
17214;SDS011;8723;51.502;6.918;2023-03-01T08:45:43;15.30;;;13.40;;
17214;SDS011;8723;51.502;6.918;2023-03-01T08:48:11;16.25;;;13.43;;
17214;SDS011;8723;51.502;6.918;2023-03-01T08:50:38;12.88;;;11.68;;
17214;SDS011;8723;51.502;6.918;2023-03-01T08:53:06;12.70;;;11.40;;
17214;SDS011;8723;51.502;6.918;2023-03-01T08:55:33;13.45;;;12.15;;
17214;SDS011;8723;51.502;6.918;2023-03-01T08:58:00;13.70;;;12.23;;
17214;SDS011;8723;51.502;6.918;2023-03-01T09:00:27;14.25;;;12.82;;
17214;SDS011;8723;51.502;6.918;2023-03-01T09:02:55;12.57;;;11.47;;
17214;SDS011;8723;51.502;6.918;2023-03-01T09:05:22;14.23;;;12.82;;
17214;SDS011;8723;51.502;6.918;2023-03-01T09:07:50;13.20;;;11.98;;
17214;SDS011;8723;51.502;6.918;2023-03-01T09:10:17;13.90;;;12.60;;
17214;SDS011;8723;51.502;6.918;2023-03-01T09:12:44;12.15;;;11.05;;
17214;SDS011;8723;51.502;6.918;2023-03-01T09:15:11;12.55;;;11.35;;
17214;SDS011;8723;51.502;6.918;2023-03-01T09:17:38;10.55;;;9.50;;
17214;SDS011;8723;51.502;6.918;2023-03-01T09:20:07;12.65;;;11.38;;
17214;SDS011;8723;51.502;6.918;2023-03-01T09:22:35;12.13;;;11.03;;
17214;SDS011;8723;51.502;6.918;2023-03-01T09:25:02;10.98;;;9.95;;
17214;SDS011;8723;51.502;6.918;2023-03-01T09:27:29;11.80;;;10.60;;
17214;SDS011;8723;51.502;6.918;2023-03-01T09:29:56;9.73;;;8.82;;
17214;SDS011;8723;51.502;6.918;2023-03-01T09:32:23;12.52;;;11.32;;
17214;SDS011;8723;51.502;6.918;2023-03-01T09:34:50;13.20;;;11.82;;
17214;SDS011;8723;51.502;6.918;2023-03-01T09:37:30;12.90;;;10.38;;
17214;SDS011;8723;51.502;6.918;2023-03-01T09:39:58;12.38;;;11.18;;
17214;SDS011;8723;51.502;6.918;2023-03-01T09:42:25;12.73;;;11.48;;
17214;SDS011;8723;51.502;6.918;2023-03-01T09:44:54;11.80;;;10.38;;
17214;SDS011;8723;51.502;6.918;2023-03-01T09:47:23;11.30;;;9.98;;
17214;SDS011;8723;51.502;6.918;2023-03-01T09:49:53;12.33;;;11.03;;
17214;SDS011;8723;51.502;6.918;2023-03-01T09:52:25;11.27;;;10.18;;
17214;SDS011;8723;51.502;6.918;2023-03-01T09:54:57;10.57;;;9.63;;
17214;SDS011;8723;51.502;6.918;2023-03-01T09:57:28;12.07;;;10.10;;
17214;SDS011;8723;51.502;6.918;2023-03-01T10:00:02;12.32;;;11.23;;
17214;SDS011;8723;51.502;6.918;2023-03-01T10:02:34;11.70;;;10.20;;
17214;SDS011;8723;51.502;6.918;2023-03-01T10:05:06;9.95;;;9.07;;
17214;SDS011;8723;51.502;6.918;2023-03-01T10:07:39;10.73;;;9.68;;
17214;SDS011;8723;51.502;6.918;2023-03-01T10:10:15;10.00;;;9.10;;
17214;SDS011;8723;51.502;6.918;2023-03-01T10:12:43;11.25;;;10.15;;
17214;SDS011;8723;51.502;6.918;2023-03-01T10:15:13;10.10;;;9.18;;
17214;SDS011;8723;51.502;6.918;2023-03-01T10:17:41;10.63;;;9.60;;
17214;SDS011;8723;51.502;6.918;2023-03-01T10:20:15;10.23;;;9.23;;
17214;SDS011;8723;51.502;6.918;2023-03-01T10:22:43;10.55;;;9.40;;
17214;SDS011;8723;51.502;6.918;2023-03-01T10:25:17;10.57;;;9.55;;
17214;SDS011;8723;51.502;6.918;2023-03-01T10:27:47;10.07;;;9.07;;
17214;SDS011;8723;51.502;6.918;2023-03-01T10:30:18;10.07;;;8.90;;
17214;SDS011;8723;51.502;6.918;2023-03-01T10:32:46;9.95;;;8.95;;
17214;SDS011;8723;51.502;6.918;2023-03-01T10:35:15;10.15;;;8.88;;
17214;SDS011;8723;51.502;6.918;2023-03-01T10:37:46;9.20;;;8.40;;
17214;SDS011;8723;51.502;6.918;2023-03-01T10:40:24;9.38;;;8.50;;
17214;SDS011;8723;51.502;6.918;2023-03-01T10:42:51;8.77;;;7.97;;
17214;SDS011;8723;51.502;6.918;2023-03-01T10:45:32;9.02;;;8.23;;
17214;SDS011;8723;51.502;6.918;2023-03-01T10:48:06;9.38;;;7.50;;
17214;SDS011;8723;51.502;6.918;2023-03-01T10:50:38;9.02;;;8.15;;
17214;SDS011;8723;51.502;6.918;2023-03-01T10:53:16;9.27;;;8.32;;
17214;SDS011;8723;51.502;6.918;2023-03-01T10:55:48;9.37;;;8.40;;
17214;SDS011;8723;51.502;6.918;2023-03-01T10:58:23;8.93;;;8.13;;
17214;SDS011;8723;51.502;6.918;2023-03-01T11:00:50;8.68;;;7.78;;
17214;SDS011;8723;51.502;6.918;2023-03-01T11:03:19;8.50;;;7.70;;
17214;SDS011;8723;51.502;6.918;2023-03-01T11:05:55;7.93;;;7.13;;
17214;SDS011;8723;51.502;6.918;2023-03-01T11:08:29;8.63;;;7.80;;
17214;SDS011;8723;51.502;6.918;2023-03-01T11:11:05;7.82;;;7.03;;
17214;SDS011;8723;51.502;6.918;2023-03-01T11:13:32;8.73;;;7.82;;
17214;SDS011;8723;51.502;6.918;2023-03-01T11:15:59;7.45;;;6.70;;
17214;SDS011;8723;51.502;6.918;2023-03-01T11:18:27;7.73;;;7.03;;
17214;SDS011;8723;51.502;6.918;2023-03-01T11:20:56;7.63;;;6.93;;
17214;SDS011;8723;51.502;6.918;2023-03-01T11:23:24;8.10;;;7.40;;
17214;SDS011;8723;51.502;6.918;2023-03-01T11:25:53;9.00;;;7.82;;
17214;SDS011;8723;51.502;6.918;2023-03-01T11:28:22;8.77;;;7.88;;
17214;SDS011;8723;51.502;6.918;2023-03-01T11:30:52;7.93;;;7.13;;
17214;SDS011;8723;51.502;6.918;2023-03-01T11:33:24;8.48;;;7.60;;
17214;SDS011;8723;51.502;6.918;2023-03-01T11:35:55;8.50;;;7.75;;
17214;SDS011;8723;51.502;6.918;2023-03-01T11:38:25;8.23;;;7.43;;
17214;SDS011;8723;51.502;6.918;2023-03-01T11:40:54;8.63;;;7.73;;
17214;SDS011;8723;51.502;6.918;2023-03-01T11:43:28;10.37;;;8.30;;
17214;SDS011;8723;51.502;6.918;2023-03-01T11:46:01;9.23;;;8.03;;
17214;SDS011;8723;51.502;6.918;2023-03-01T11:51:16;8.60;;;7.77;;
17214;SDS011;8723;51.502;6.918;2023-03-01T11:53:50;9.30;;;7.78;;
17214;SDS011;8723;51.502;6.918;2023-03-01T11:56:24;7.18;;;6.30;;
17214;SDS011;8723;51.502;6.918;2023-03-01T11:59:06;8.80;;;7.45;;
17214;SDS011;8723;51.502;6.918;2023-03-01T12:01:44;8.38;;;7.65;;
17214;SDS011;8723;51.502;6.918;2023-03-01T12:04:48;7.75;;;6.95;;
17214;SDS011;8723;51.502;6.918;2023-03-01T12:07:21;8.32;;;7.53;;
17214;SDS011;8723;51.502;6.918;2023-03-01T12:09:55;6.70;;;6.10;;
17214;SDS011;8723;51.502;6.918;2023-03-01T12:12:29;7.78;;;6.90;;
17214;SDS011;8723;51.502;6.918;2023-03-01T12:17:54;7.43;;;6.63;;
17214;SDS011;8723;51.502;6.918;2023-03-01T12:20:26;8.32;;;7.35;;
17214;SDS011;8723;51.502;6.918;2023-03-01T12:23:01;7.20;;;6.50;;
17214;SDS011;8723;51.502;6.918;2023-03-01T12:25:30;7.18;;;6.47;;
17214;SDS011;8723;51.502;6.918;2023-03-01T12:30:53;7.10;;;6.40;;
17214;SDS011;8723;51.502;6.918;2023-03-01T12:33:28;7.85;;;7.15;;
17214;SDS011;8723;51.502;6.918;2023-03-01T12:36:05;7.03;;;6.33;;
17214;SDS011;8723;51.502;6.918;2023-03-01T12:38:37;8.70;;;7.82;;
17214;SDS011;8723;51.502;6.918;2023-03-01T12:44:02;8.52;;;7.72;;
17214;SDS011;8723;51.502;6.918;2023-03-01T12:46:34;8.30;;;7.45;;
17214;SDS011;8723;51.502;6.918;2023-03-01T12:49:06;7.25;;;6.55;;
17214;SDS011;8723;51.502;6.918;2023-03-01T12:51:35;6.15;;;5.65;;
17214;SDS011;8723;51.502;6.918;2023-03-01T12:54:05;7.73;;;6.93;;
17214;SDS011;8723;51.502;6.918;2023-03-01T12:56:34;8.05;;;6.88;;
17214;SDS011;8723;51.502;6.918;2023-03-01T12:59:04;7.22;;;6.63;;
17214;SDS011;8723;51.502;6.918;2023-03-01T13:01:36;7.38;;;6.68;;
17214;SDS011;8723;51.502;6.918;2023-03-01T13:04:12;8.20;;;7.40;;
17214;SDS011;8723;51.502;6.918;2023-03-01T13:06:43;7.22;;;6.55;;
17214;SDS011;8723;51.502;6.918;2023-03-01T13:09:14;8.40;;;7.50;;
17214;SDS011;8723;51.502;6.918;2023-03-01T13:11:45;8.27;;;7.47;;
17214;SDS011;8723;51.502;6.918;2023-03-01T13:16:57;8.33;;;7.53;;
17214;SDS011;8723;51.502;6.918;2023-03-01T13:19:26;8.25;;;7.30;;
17214;SDS011;8723;51.502;6.918;2023-03-01T13:21:55;7.10;;;6.40;;
17214;SDS011;8723;51.502;6.918;2023-03-01T13:24:26;8.10;;;7.30;;
17214;SDS011;8723;51.502;6.918;2023-03-01T13:27:08;8.25;;;7.45;;
17214;SDS011;8723;51.502;6.918;2023-03-01T13:29:43;8.07;;;7.28;;
17214;SDS011;8723;51.502;6.918;2023-03-01T13:32:19;7.35;;;6.65;;
17214;SDS011;8723;51.502;6.918;2023-03-01T13:34:48;7.88;;;7.07;;
17214;SDS011;8723;51.502;6.918;2023-03-01T13:37:19;8.07;;;6.80;;
17214;SDS011;8723;51.502;6.918;2023-03-01T13:39:46;7.30;;;6.60;;
17214;SDS011;8723;51.502;6.918;2023-03-01T13:44:58;8.87;;;7.60;;
17214;SDS011;8723;51.502;6.918;2023-03-01T13:47:25;7.78;;;6.95;;
17214;SDS011;8723;51.502;6.918;2023-03-01T13:49:55;7.28;;;6.57;;
17214;SDS011;8723;51.502;6.918;2023-03-01T13:52:29;8.48;;;7.60;;
17214;SDS011;8723;51.502;6.918;2023-03-01T13:54:57;9.00;;;7.80;;
17214;SDS011;8723;51.502;6.918;2023-03-01T13:57:26;8.77;;;7.95;;
17214;SDS011;8723;51.502;6.918;2023-03-01T13:59:55;8.68;;;7.78;;
17214;SDS011;8723;51.502;6.918;2023-03-01T14:02:22;8.77;;;7.97;;
17214;SDS011;8723;51.502;6.918;2023-03-01T14:04:56;8.77;;;7.97;;
17214;SDS011;8723;51.502;6.918;2023-03-01T14:07:24;9.75;;;8.15;;
17214;SDS011;8723;51.502;6.918;2023-03-01T14:09:54;8.37;;;7.57;;
17214;SDS011;8723;51.502;6.918;2023-03-01T14:12:26;8.93;;;8.13;;
17214;SDS011;8723;51.502;6.918;2023-03-01T14:14:57;10.00;;;9.00;;
17214;SDS011;8723;51.502;6.918;2023-03-01T14:17:41;9.65;;;8.73;;
17214;SDS011;8723;51.502;6.918;2023-03-01T14:20:14;9.10;;;8.23;;
17214;SDS011;8723;51.502;6.918;2023-03-01T14:22:41;9.68;;;8.70;;
17214;SDS011;8723;51.502;6.918;2023-03-01T14:27:51;10.05;;;9.10;;
17214;SDS011;8723;51.502;6.918;2023-03-01T14:30:21;9.32;;;8.43;;
17214;SDS011;8723;51.502;6.918;2023-03-01T14:32:52;8.10;;;7.40;;
17214;SDS011;8723;51.502;6.918;2023-03-01T14:35:22;8.48;;;7.78;;
17214;SDS011;8723;51.502;6.918;2023-03-01T14:37:50;7.90;;;7.20;;
17214;SDS011;8723;51.502;6.918;2023-03-01T14:40:22;9.93;;;9.02;;
17214;SDS011;8723;51.502;6.918;2023-03-01T14:42:50;10.15;;;9.25;;
17214;SDS011;8723;51.502;6.918;2023-03-01T14:45:17;10.18;;;9.23;;
17214;SDS011;8723;51.502;6.918;2023-03-01T14:47:45;9.80;;;9.00;;
17214;SDS011;8723;51.502;6.918;2023-03-01T14:50:15;9.55;;;8.65;;
17214;SDS011;8723;51.502;6.918;2023-03-01T14:52:47;10.05;;;9.15;;
17214;SDS011;8723;51.502;6.918;2023-03-01T14:55:15;9.63;;;8.73;;
17214;SDS011;8723;51.502;6.918;2023-03-01T14:57:43;9.93;;;9.00;;
17214;SDS011;8723;51.502;6.918;2023-03-01T15:00:13;9.50;;;8.60;;
17214;SDS011;8723;51.502;6.918;2023-03-01T15:02:42;10.48;;;9.55;;
17214;SDS011;8723;51.502;6.918;2023-03-01T15:05:10;9.65;;;8.77;;
17214;SDS011;8723;51.502;6.918;2023-03-01T15:07:38;8.70;;;7.72;;
17214;SDS011;8723;51.502;6.918;2023-03-01T15:10:17;10.00;;;9.00;;
17214;SDS011;8723;51.502;6.918;2023-03-01T15:12:46;9.48;;;8.48;;
17214;SDS011;8723;51.502;6.918;2023-03-01T15:15:20;10.05;;;8.55;;
17214;SDS011;8723;51.502;6.918;2023-03-01T15:17:50;9.15;;;8.25;;